Time;durP1;ratioP1;P1;durP2;ratioP2;P2;SDS_P1;SDS_P2;PMS_P1;PMS_P2;Temp;Humidity;BMP_temperature;BMP_pressure;BME280_temperature;BME280_humidity;BME280_pressure;Samples;Min_cycle;Max_cycle;Signal;HPM_P1;HPM_P2
2022/03/10 00:00:20;;;;;;;14.65;13.15;;;;;;;-1.06;75.70;101218.13;10423388;28;20050;-70
2022/03/10 00:05:21;;;;;;;14.55;12.52;;;;;;;-0.52;74.81;101220.78;10423769;28;20042;-71
2022/03/10 00:10:23;;;;;;;14.60;13.07;;;;;;;-0.85;75.91;101230.84;10423353;28;20099;-71
2022/03/10 00:15:25;;;;;;;16.60;12.75;;;;;;;-0.83;75.30;101223.19;10423405;28;20076;-71
2022/03/10 00:20:27;;;;;;;14.45;13.05;;;;;;;-0.81;76.34;101226.69;10405184;28;20052;-72
2022/03/10 00:25:28;;;;;;;16.50;13.52;;;;;;;-0.76;74.85;101222.53;10405728;28;20377;-72
2022/03/10 00:30:30;;;;;;;15.68;14.00;;;;;;;-1.27;76.49;101233.72;10405081;28;20484;-70
2022/03/10 00:35:32;;;;;;;17.33;14.07;;;;;;;-1.24;77.74;101232.94;10423198;28;20041;-71
2022/03/10 00:40:34;;;;;;;16.02;14.38;;;;;;;-1.22;77.63;101233.91;10422761;28;20056;-73
2022/03/10 00:45:35;;;;;;;20.67;15.95;;;;;;;-1.30;78.06;101245.63;10403919;28;20136;-72
2022/03/10 00:50:37;;;;;;;16.83;15.07;;;;;;;-1.20;77.57;101239.09;10421830;28;20045;-72
2022/03/10 00:55:40;;;;;;;18.27;15.48;;;;;;;-1.27;78.37;101238.91;10422445;28;20048;-71
2022/03/10 01:00:41;;;;;;;22.60;14.57;;;;;;;-1.34;78.62;101249.81;10421592;28;20053;-72
2022/03/10 01:05:44;;;;;;;13.68;12.00;;;;;;;-1.21;78.07;101247.66;10420841;28;20041;-70
2022/03/10 01:10:46;;;;;;;17.67;14.18;;;;;;;-1.08;77.17;101258.47;10405287;28;20103;-72
2022/03/10 01:15:47;;;;;;;16.65;13.32;;;;;;;-1.37;78.03;101261.75;10405330;28;20045;-71
2022/03/10 01:20:51;;;;;;;14.93;13.43;;;;;;;-1.59;79.16;101266.09;10420344;28;20103;-71
2022/03/10 01:25:52;;;;;;;16.80;13.95;;;;;;;-1.39;78.22;101264.25;10420670;28;20132;-71
2022/03/10 01:30:54;;;;;;;25.13;14.48;;;;;;;-1.27;78.22;101272.44;10420766;28;20049;-72
2022/03/10 01:35:57;;;;;;;15.35;13.75;;;;;;;-1.51;78.70;101271.53;10420289;28;20086;-71
2022/03/10 01:40:58;;;;;;;22.58;14.75;;;;;;;-1.49;78.82;101275.06;10419924;28;20487;-71
2022/03/10 01:46:02;;;;;;;16.05;13.85;;;;;;;-1.67;78.38;101270.09;10419026;28;20120;-72
2022/03/10 01:51:03;;;;;;;17.67;13.80;;;;;;;-1.57;78.73;101261.88;10419119;28;20144;-71
2022/03/10 01:56:05;;;;;;;18.88;13.85;;;;;;;-1.67;77.50;101267.50;10419076;28;20124;-70
2022/03/10 02:01:09;;;;;;;16.90;13.25;;;;;;;-1.48;78.26;101260.47;10419417;28;20041;-72
2022/03/10 02:06:13;;;;;;;13.82;11.88;;;;;;;-1.89;79.18;101273.56;10420031;28;20103;-71
2022/03/10 02:11:14;;;;;;;13.48;11.90;;;;;;;-1.92;79.45;101278.59;10419898;28;20077;-70
2022/03/10 02:21:37;;;;;;;13.98;12.48;;;;;;;-2.03;79.88;101270.44;10418965;28;20041;-71
2022/03/10 02:26:39;;;;;;;14.90;12.98;;;;;;;-1.85;79.94;101282.28;10384266;28;20049;-71
2022/03/10 02:31:41;;;;;;;13.77;12.48;;;;;;;-1.87;79.22;101281.34;10418062;28;20045;-71
2022/03/10 02:36:42;;;;;;;14.10;12.23;;;;;;;-2.13;79.26;101283.78;10418011;28;20461;-70
2022/03/10 02:41:44;;;;;;;16.38;12.70;;;;;;;-2.29;79.39;101289.16;10418151;28;20045;-73
2022/03/10 02:46:46;;;;;;;15.98;12.40;;;;;;;-1.79;79.27;101293.69;10419153;28;20427;-70
2022/03/10 02:51:47;;;;;;;17.45;13.90;;;;;;;-1.74;78.87;101305.88;10418316;28;20087;-71
2022/03/10 02:56:49;;;;;;;16.35;14.65;;;;;;;-1.91;80.03;101300.06;10417747;28;20042;-71
2022/03/10 03:01:51;;;;;;;16.08;12.75;;;;;;;-2.09;80.51;101305.38;10417444;28;20045;-71
2022/03/10 03:06:53;;;;;;;16.77;14.63;;;;;;;-2.21;80.22;101305.81;10415779;28;20499;-71
2022/03/10 03:11:55;;;;;;;20.40;13.85;;;;;;;-2.46;80.70;101303.91;10417969;28;20046;-70
2022/03/10 03:16:57;;;;;;;14.60;13.07;;;;;;;-2.59;81.39;101297.38;10417789;28;20045;-71
2022/03/10 03:21:58;;;;;;;16.92;13.32;;;;;;;-2.58;81.85;101296.56;10399772;28;20050;-72
2022/03/10 03:27:01;;;;;;;15.73;12.40;;;;;;;-2.66;81.21;101303.06;10400626;28;20041;-71
2022/03/10 03:32:04;;;;;;;18.15;13.30;;;;;;;-2.52;81.11;101303.69;10408381;28;20517;-72
2022/03/10 03:37:05;;;;;;;14.43;11.80;;;;;;;-2.57;81.33;101308.63;10426377;28;20037;-70
2022/03/10 03:42:07;;;;;;;18.38;13.50;;;;;;;-2.29;81.42;101312.34;10409274;28;20049;-72
2022/03/10 03:47:09;;;;;;;14.15;12.57;;;;;;;-2.01;79.50;101319.47;10426880;28;20044;-71
2022/03/10 03:52:10;;;;;;;14.13;12.55;;;;;;;-2.01;79.05;101318.59;10408687;28;20056;-70
2022/03/10 03:57:12;;;;;;;13.73;11.80;;;;;;;-2.44;80.11;101327.13;10425765;28;20488;-72
2022/03/10 04:02:14;;;;;;;18.02;12.30;;;;;;;-2.60;81.74;101338.50;10406995;28;20060;-71
2022/03/10 04:07:16;;;;;;;13.38;12.07;;;;;;;-2.60;81.88;101341.97;10406586;28;20499;-71
2022/03/10 04:12:18;;;;;;;14.88;11.27;;;;;;;-2.73;82.10;101349.09;10423646;28;20045;-71
2022/03/10 04:17:20;;;;;;;13.77;12.10;;;;;;;-2.73;81.87;101360.28;10406059;28;20046;-71
2022/03/10 04:22:21;;;;;;;13.15;11.77;;;;;;;-2.87;81.85;101367.41;10423779;28;20045;-71
2022/03/10 04:27:23;;;;;;;12.57;11.38;;;;;;;-2.87;82.23;101367.41;10423236;28;20416;-70
2022/03/10 04:32:25;;;;;;;13.02;11.75;;;;;;;-2.65;81.94;101365.75;10423728;28;20049;-71
2022/03/10 04:37:26;;;;;;;13.55;11.65;;;;;;;-2.28;80.80;101366.47;10422855;28;20037;-71
2022/03/10 04:42:28;;;;;;;13.57;12.20;;;;;;;-2.24;79.95;101367.47;10422921;28;20045;-71
2022/03/10 04:47:30;;;;;;;12.80;11.40;;;;;;;-2.55;81.08;101365.31;10407621;28;20501;-71
2022/03/10 04:52:32;;;;;;;14.13;11.10;;;;;;;-2.89;82.17;101374.16;10424971;28;20042;-71
2022/03/10 04:57:34;;;;;;;12.18;10.45;;;;;;;-2.54;82.01;101370.53;10423762;28;20041;-71
2022/03/10 05:02:40;;;;;;;13.35;11.98;;;;;;;-2.56;81.19;101369.59;10422589;28;20067;-71
2022/03/10 05:07:42;;;;;;;12.83;11.47;;;;;;;-2.51;81.22;101367.22;10406606;28;20038;-71
2022/03/10 05:12:56;;;;;;;17.10;10.98;;;;;;;-2.55;81.58;101376.50;10424817;28;20052;-71
2022/03/10 05:18:03;;;;;;;12.90;11.63;;;;;;;-2.38;80.24;101364.34;10424683;28;20450;-71
2022/03/10 05:23:06;;;;;;;13.80;12.48;;;;;;;-2.71;81.37;101376.63;10423080;28;20411;-71
2022/03/10 05:28:14;;;;;;;12.75;11.52;;;;;;;-2.97;83.17;101383.22;10406017;28;20140;-70
2022/03/10 05:33:18;;;;;;;16.42;12.57;;;;;;;-2.65;82.55;101379.50;10420980;28;20046;-71
2022/03/10 05:38:20;;;;;;;19.05;13.45;;;;;;;-2.49;81.62;101391.31;10421233;28;20052;-71
2022/03/10 05:43:22;;;;;;;21.38;13.25;;;;;;;-2.43;81.60;101386.44;10421206;28;20107;-70
2022/03/10 05:48:23;;;;;;;16.13;13.18;;;;;;;-2.65;82.35;101383.78;10404728;28;20072;-71
2022/03/10 05:53:25;;;;;;;14.02;12.73;;;;;;;-2.69;83.16;101380.19;10422008;28;20537;-71
2022/03/10 05:58:27;;;;;;;14.85;13.45;;;;;;;-2.88;83.85;101382.75;10421603;28;20119;-71
2022/03/10 06:03:29;;;;;;;14.07;12.52;;;;;;;-2.80;84.88;101391.69;10386976;28;20419;-71
2022/03/10 06:08:31;;;;;;;14.50;12.80;;;;;;;-2.76;84.08;101391.00;10419572;28;20041;-71
2022/03/10 06:13:33;;;;;;;19.23;15.30;;;;;;;-2.47;84.74;101399.13;10401527;28;20171;-70
2022/03/10 06:18:35;;;;;;;91.32;42.53;;;;;;;0.06;85.58;101397.50;10401767;28;20484;-71
2022/03/10 06:23:37;;;;;;;29.80;16.27;;;;;;;2.41;67.43;101391.94;10402343;28;20140;-71
2022/03/10 06:28:39;;;;;;;14.60;13.10;;;;;;;3.79;61.38;101387.81;10419469;28;20060;-71
2022/03/10 06:33:43;;;;;;;10.30;9.30;;;;;;;4.29;56.20;101392.97;10418696;28;20050;-71
2022/03/10 06:38:45;;;;;;;10.00;9.00;;;;;;;4.14;55.27;101404.03;10419040;28;20052;-72
2022/03/10 06:43:46;;;;;;;14.48;8.95;;;;;;;3.62;56.36;101407.44;10420812;28;20052;-71
2022/03/10 06:48:48;;;;;;;9.93;8.80;;;;;;;2.39;59.79;101411.78;10419372;28;20042;-72
2022/03/10 06:53:49;;;;;;;13.43;9.32;;;;;;;2.01;61.47;101416.94;10417593;28;20053;-71
2022/03/10 06:58:55;;;;;;;10.40;9.27;;;;;;;2.59;60.06;101412.25;10416891;28;20108;-72
2022/03/10 07:03:57;;;;;;;12.32;11.13;;;;;;;3.27;58.04;101418.03;10421717;28;20133;-71
2022/03/10 07:08:59;;;;;;;12.70;9.48;;;;;;;2.73;60.47;101422.09;10423959;28;20446;-72
2022/03/10 07:14:00;;;;;;;11.00;9.85;;;;;;;2.84;59.52;101430.16;10425392;28;20041;-71
2022/03/10 07:19:02;;;;;;;10.57;9.57;;;;;;;2.73;59.71;101427.28;10426236;28;20064;-72
2022/03/10 07:24:05;;;;;;;10.30;8.88;;;;;;;3.21;58.81;101426.59;10424819;28;20045;-71
2022/03/10 07:29:06;;;;;;;11.07;9.98;;;;;;;3.35;58.53;101423.38;10424533;28;20052;-71
2022/03/10 07:34:08;;;;;;;13.15;10.35;;;;;;;2.81;59.85;101427.47;10424795;28;20041;-71
2022/03/10 07:39:10;;;;;;;11.38;10.07;;;;;;;2.32;61.00;101428.94;10425588;28;20096;-72
2022/03/10 07:44:13;;;;;;;12.60;8.82;;;;;;;2.55;60.69;101433.78;10423986;28;20046;-71
2022/03/10 07:49:14;;;;;;;11.48;9.40;;;;;;;2.69;59.71;101432.38;10423947;28;20389;-70
2022/03/10 07:54:16;;;;;;;11.10;10.00;;;;;;;2.77;59.58;101429.13;10424313;28;20045;-70
2022/03/10 07:59:19;;;;;;;15.45;10.15;;;;;;;2.58;60.58;101432.16;10423167;28;20414;-71
2022/03/10 08:04:20;;;;;;;14.02;10.98;;;;;;;2.84;60.49;101427.53;10405402;28;20435;-72
2022/03/10 08:09:22;;;;;;;15.32;11.07;;;;;;;2.78;59.93;101425.66;10422889;28;20041;-71
2022/03/10 08:14:23;;;;;;;12.05;10.65;;;;;;;3.12;58.48;101422.94;10422535;28;20474;-70
2022/03/10 08:19:25;;;;;;;15.05;10.30;;;;;;;3.51;57.60;101418.53;10422767;28;20483;-72
2022/03/10 08:24:28;;;;;;;11.80;10.63;;;;;;;3.23;58.70;101426.59;10423200;28;20065;-72
2022/03/10 08:29:29;;;;;;;16.63;10.82;;;;;;;3.46;58.43;101420.16;10422545;28;20049;-73
2022/03/10 08:34:31;;;;;;;17.00;11.38;;;;;;;4.14;56.12;101416.16;10422993;28;20042;-71
2022/03/10 08:39:33;;;;;;;17.50;11.48;;;;;;;4.17;56.68;101411.91;10423185;28;20041;-71
2022/03/10 08:44:35;;;;;;;14.35;11.63;;;;;;;4.83;55.08;101406.81;10404843;28;20049;-71
2022/03/10 08:49:36;;;;;;;11.65;10.45;;;;;;;5.28;53.13;101416.94;10421738;28;20037;-72
2022/03/10 08:54:39;;;;;;;12.77;11.48;;;;;;;5.43;52.83;101403.19;10421986;28;20057;-71
2022/03/10 08:59:41;;;;;;;18.77;11.25;;;;;;;5.72;52.10;101404.38;10421707;28;20052;-71
2022/03/10 09:04:42;;;;;;;13.07;11.48;;;;;;;6.19;50.35;101403.94;10421639;28;20079;-71
2022/03/10 09:09:44;;;;;;;12.98;10.25;;;;;;;5.95;51.05;101409.84;10420798;28;20045;-70
2022/03/10 09:14:45;;;;;;;12.27;11.07;;;;;;;6.39;51.13;101406.72;10420386;28;20148;-71
2022/03/10 09:19:51;;;;;;;15.50;11.20;;;;;;;6.68;49.38;101406.91;10402547;28;20061;-71
2022/03/10 09:24:53;;;;;;;12.40;11.07;;;;;;;6.90;48.95;101413.13;10419720;28;20052;-71
2022/03/10 09:29:54;;;;;;;13.50;11.75;;;;;;;7.30;48.42;101418.53;10420050;28;20041;-70
2022/03/10 09:34:56;;;;;;;12.48;11.02;;;;;;;7.52;48.03;101415.13;10420127;28;20045;-71
2022/03/10 09:39:58;;;;;;;12.55;11.20;;;;;;;7.56;48.44;101414.25;10420159;28;20455;-71
2022/03/10 09:45:03;;;;;;;14.45;11.93;;;;;;;7.88;47.65;101417.81;10421542;28;20056;-71
2022/03/10 09:50:10;;;;;;;13.63;12.32;;;;;;;8.19;46.27;101409.13;10401632;28;20042;-71
2022/03/10 09:55:13;;;;;;;15.25;11.85;;;;;;;8.50;45.75;101415.25;10401097;28;20419;-70
2022/03/10 10:00:17;;;;;;;11.80;10.70;;;;;;;8.46;45.13;101412.66;10397606;28;20492;-70
2022/03/10 10:05:25;;;;;;;12.85;11.55;;;;;;;9.05;45.05;101409.00;10377700;28;20062;-71
2022/03/10 10:10:29;;;;;;;12.60;10.80;;;;;;;9.35;43.56;101408.00;10377344;28;20053;-71
2022/03/10 10:15:40;;;;;;;13.80;10.70;;;;;;;9.60;43.52;101392.97;10378152;28;20049;-71
2022/03/10 10:20:47;;;;;;;11.95;10.85;;;;;;;9.83;42.01;101392.84;10378145;28;20050;-70
2022/03/10 10:26:00;;;;;;;11.65;10.43;;;;;;;10.08;40.85;101390.88;10359359;28;20042;-70
2022/03/10 10:31:13;;;;;;;11.15;10.02;;;;;;;10.58;39.77;101385.22;10375938;28;20133;-71
2022/03/10 10:36:24;;;;;;;13.80;9.35;;;;;;;9.97;40.72;101374.34;10381540;28;20038;-71
2022/03/10 10:41:31;;;;;;;10.43;9.43;;;;;;;10.46;40.14;101374.81;10420444;28;20470;-71
2022/03/10 10:46:38;;;;;;;11.32;9.85;;;;;;;10.50;40.24;101365.16;10404538;28;20065;-70
2022/03/10 10:51:46;;;;;;;11.85;9.63;;;;;;;10.74;38.76;101364.00;10376878;28;20054;-71
2022/03/10 10:56:52;;;;;;;10.45;8.98;;;;;;;11.26;37.87;101355.47;10338593;28;20057;-71
2022/03/10 11:02:05;;;;;;;9.33;7.70;;;;;;;10.91;38.89;101361.19;10337336;28;20065;-72
2022/03/10 11:07:10;;;;;;;7.18;6.47;;;;;;;11.56;36.52;101346.28;10360218;28;20049;-71
2022/03/10 11:12:15;;;;;;;8.00;6.03;;;;;;;10.85;38.72;101351.63;10360438;28;20053;-71
2022/03/10 11:17:19;;;;;;;6.13;5.55;;;;;;;11.38;37.64;101350.06;10376943;28;20046;-72
2022/03/10 11:22:39;;;;;;;6.53;5.47;;;;;;;11.04;37.08;101353.13;10377134;28;20101;-72
2022/03/10 11:27:49;;;;;;;6.13;4.95;;;;;;;10.99;38.45;101349.69;10376898;28;20046;-71
2022/03/10 11:33:06;;;;;;;6.18;5.57;;;;;;;11.36;36.61;101346.56;10378132;28;20054;-71
2022/03/10 11:38:09;;;;;;;6.20;5.60;;;;;;;11.01;37.03;101342.63;10376338;28;20749;-70
2022/03/10 11:43:38;;;;;;;7.13;5.63;;;;;;;11.42;36.50;101335.06;10376063;28;20413;-71
2022/03/10 11:48:42;;;;;;;7.07;5.35;;;;;;;11.31;37.09;101328.19;10379821;28;20120;-72
2022/03/10 11:53:54;;;;;;;7.05;6.32;;;;;;;11.25;37.38;101333.56;10384442;28;20046;-71
2022/03/10 11:58:59;;;;;;;8.07;6.13;;;;;;;11.48;37.08;101325.31;10366725;28;20040;-72
2022/03/10 12:04:00;;;;;;;6.63;6.05;;;;;;;11.69;37.03;101318.00;10382700;28;20046;-71
2022/03/10 12:09:03;;;;;;;7.22;6.53;;;;;;;11.68;37.10;101319.72;10365686;28;20559;-72
2022/03/10 12:14:31;;;;;;;7.47;6.78;;;;;;;11.91;39.81;101315.88;10382432;28;20128;-71
2022/03/10 12:20:11;;;;;;;7.07;6.43;;;;;;;11.40;40.07;101315.78;10386448;28;20121;-71
2022/03/10 12:25:21;;;;;;;7.05;6.30;;;;;;;11.17;41.68;101310.88;10369269;28;20045;-71
2022/03/10 12:30:25;;;;;;;6.93;6.25;;;;;;;11.09;40.59;101306.56;10365533;28;20046;-71
2022/03/10 12:35:33;;;;;;;7.85;7.05;;;;;;;10.74;41.57;101304.38;10364426;28;20053;-72
2022/03/10 12:40:37;;;;;;;8.38;7.45;;;;;;;10.31;41.75;101298.75;10405690;28;20492;-71
2022/03/10 12:45:46;;;;;;;8.00;7.30;;;;;;;10.31;42.38;101309.25;10422810;28;20136;-72
2022/03/10 12:50:49;;;;;;;8.73;7.82;;;;;;;10.10;42.75;101308.56;10423261;28;20052;-73
2022/03/10 12:55:55;;;;;;;9.98;9.07;;;;;;;9.74;43.75;101309.75;10422444;28;20168;-72
2022/03/10 13:01:09;;;;;;;10.65;9.75;;;;;;;9.80;43.67;101304.44;10403294;28;20415;-71
2022/03/10 13:06:12;;;;;;;10.82;10.02;;;;;;;9.64;44.04;101292.31;10404690;28;20045;-72
2022/03/10 13:11:22;;;;;;;10.32;9.38;;;;;;;9.69;43.51;101292.28;10422073;28;20175;-72
2022/03/10 13:16:24;;;;;;;11.30;8.98;;;;;;;9.73;43.14;101289.59;10404078;28;20064;-72
2022/03/10 13:21:26;;;;;;;9.45;8.65;;;;;;;9.76;42.78;101286.09;10423012;28;20050;-72
2022/03/10 13:26:28;;;;;;;10.25;9.25;;;;;;;9.62;43.45;101275.72;10421409;28;20464;-71
2022/03/10 13:31:31;;;;;;;10.27;9.45;;;;;;;9.49;43.11;101279.31;10421528;28;20042;-72
2022/03/10 13:36:34;;;;;;;12.38;10.73;;;;;;;9.42;43.79;101273.22;10404069;28;20054;-72
2022/03/10 13:41:36;;;;;;;11.63;10.73;;;;;;;9.41;43.73;101274.13;10421832;28;20058;-72
2022/03/10 13:46:37;;;;;;;14.38;13.00;;;;;;;9.34;44.55;101264.53;10421252;28;20045;-72
2022/03/10 13:51:40;;;;;;;16.10;14.63;;;;;;;9.33;44.84;101265.44;10420892;28;20065;-72
2022/03/10 13:56:46;;;;;;;15.13;13.65;;;;;;;9.35;44.50;101263.69;10420601;28;20052;-72
2022/03/10 14:01:48;;;;;;;17.95;16.23;;;;;;;9.46;45.08;101258.34;10422293;28;20406;-72
2022/03/10 14:06:51;;;;;;;23.77;16.17;;;;;;;9.27;45.42;101258.47;10420641;28;20045;-71
2022/03/10 14:11:53;;;;;;;16.13;14.73;;;;;;;9.12;45.70;101255.97;10421132;28;20442;-72
2022/03/10 14:16:55;;;;;;;17.48;15.98;;;;;;;8.94;46.05;101256.94;10377828;28;20046;-72
2022/03/10 14:22:00;;;;;;;16.92;14.93;;;;;;;8.89;46.26;101258.69;10377864;28;20092;-72
2022/03/10 14:27:13;;;;;;;21.48;15.10;;;;;;;8.68;46.12;101258.81;10376712;28;20042;-71
2022/03/10 14:32:15;;;;;;;15.80;14.18;;;;;;;8.61;46.56;101249.22;10379233;28;20073;-73
2022/03/10 14:37:17;;;;;;;16.67;15.10;;;;;;;8.54;46.43;101257.13;10379213;28;20048;-72
2022/03/10 14:42:20;;;;;;;16.15;14.85;;;;;;;8.29;47.14;101255.44;10379957;28;20519;-72
2022/03/10 14:47:22;;;;;;;15.88;14.25;;;;;;;8.36;46.89;101254.53;10361978;28;20503;-72
2022/03/10 14:52:23;;;;;;;15.13;13.93;;;;;;;8.30;46.46;101258.03;10379606;28;20050;-71
2022/03/10 14:57:25;;;;;;;15.80;14.25;;;;;;;8.13;46.89;101249.34;10345415;28;20049;-72
2022/03/10 15:02:27;;;;;;;15.68;14.27;;;;;;;8.13;47.10;101244.13;10379346;28;20451;-73
2022/03/10 15:07:29;;;;;;;14.65;13.45;;;;;;;8.06;46.79;101251.13;10378228;28;20056;-71
2022/03/10 15:12:31;;;;;;;15.27;13.02;;;;;;;7.99;46.63;101254.63;10361245;28;20050;-73
2022/03/10 15:17:33;;;;;;;14.13;12.88;;;;;;;7.95;46.68;101250.25;10377943;28;20065;-71
2022/03/10 15:22:54;;;;;;;14.35;13.20;;;;;;;7.72;46.60;101254.66;10377019;28;20504;-72
2022/03/10 15:27:59;;;;;;;14.25;13.07;;;;;;;7.62;46.70;101258.16;10367915;28;20049;-72
2022/03/10 15:33:01;;;;;;;12.80;11.77;;;;;;;7.58;46.35;101252.91;10386463;28;20038;-73
2022/03/10 15:38:03;;;;;;;13.80;12.55;;;;;;;7.50;46.87;101259.88;10384240;28;20049;-72
2022/03/10 15:43:05;;;;;;;14.05;12.95;;;;;;;7.65;46.22;101250.28;10384825;28;20054;-72
2022/03/10 15:48:07;;;;;;;13.32;12.25;;;;;;;7.52;46.51;101252.03;10367485;28;20526;-72
2022/03/10 15:53:09;;;;;;;12.02;11.05;;;;;;;7.51;45.83;101259.00;10351257;28;20423;-72
2022/03/10 15:58:12;;;;;;;12.13;10.85;;;;;;;7.45;46.08;101256.41;10367053;28;20518;-72
2022/03/10 16:03:14;;;;;;;12.90;11.77;;;;;;;7.32;45.62;101262.50;10384590;28;20072;-73
2022/03/10 16:08:16;;;;;;;11.98;11.07;;;;;;;7.28;45.42;101265.97;10384273;28;20124;-71
2022/03/10 16:13:18;;;;;;;11.90;10.75;;;;;;;7.22;45.41;101273.81;10366666;28;20050;-72
2022/03/10 16:18:20;;;;;;;11.48;10.30;;;;;;;7.23;44.70;101270.34;10513176;23;20052;-82
2022/03/10 16:23:23;;;;;;;10.63;9.73;;;;;;;7.03;45.24;101276.38;10521673;28;20059;-82
2022/03/10 16:28:24;;;;;;;12.45;9.95;;;;;;;6.95;44.08;101274.59;10515734;28;20037;-82
2022/03/10 16:33:26;;;;;;;10.18;9.20;;;;;;;6.80;44.18;101286.75;10508770;28;20063;-83
2022/03/10 16:38:28;;;;;;;11.38;9.90;;;;;;;6.67;44.37;101290.19;10521138;28;20037;-83
2022/03/10 16:43:29;;;;;;;9.88;9.02;;;;;;;6.50;44.59;101290.09;10518471;28;20071;-83
2022/03/10 16:48:31;;;;;;;10.00;8.85;;;;;;;6.46;44.57;101296.22;10501445;28;20048;-82
2022/03/10 16:53:32;;;;;;;10.20;9.30;;;;;;;6.43;44.20;101293.56;10500337;28;20098;-84
2022/03/10 16:58:35;;;;;;;10.90;9.85;;;;;;;6.25;44.76;101306.53;10520053;28;20401;-84
2022/03/10 17:03:37;;;;;;;9.80;9.00;;;;;;;6.16;44.76;101307.34;10517382;28;20079;-83
2022/03/10 17:08:38;;;;;;;10.30;9.25;;;;;;;6.22;44.08;101311.72;10517392;28;20102;-83
2022/03/10 17:13:40;;;;;;;10.52;9.70;;;;;;;6.26;43.90;101326.56;10526654;28;20055;-84
2022/03/10 17:18:43;;;;;;;9.77;8.98;;;;;;;6.17;43.92;101331.72;10489463;28;989554;-83
2022/03/10 17:23:44;;;;;;;10.10;9.23;;;;;;;6.13;43.57;101332.56;10488399;28;20045;-84
2022/03/10 17:28:46;;;;;;;10.55;9.65;;;;;;;5.96;44.26;101333.28;10520755;28;20052;-83
2022/03/10 17:33:48;;;;;;;10.60;9.60;;;;;;;5.80;44.66;101342.72;10501677;28;20112;-85
2022/03/10 17:38:49;;;;;;;10.93;10.00;;;;;;;5.90;44.82;101346.28;10508546;28;20044;-84
2022/03/10 17:43:54;;;;;;;11.23;10.23;;;;;;;5.65;44.82;101353.00;10503151;28;20048;-86
2022/03/10 17:48:57;;;;;;;10.55;9.45;;;;;;;5.76;44.25;101350.50;10500056;28;20490;-85
2022/03/10 17:54:01;;;;;;;12.27;10.48;;;;;;;5.61;44.58;101360.78;10500707;28;20477;-82
2022/03/10 17:59:03;;;;;;;11.75;10.65;;;;;;;5.57;44.34;101345.09;10500852;28;20041;-83
2022/03/10 18:04:05;;;;;;;10.60;9.60;;;;;;;5.30;44.72;101350.91;10499047;28;20099;-83
2022/03/10 18:09:07;;;;;;;10.40;9.40;;;;;;;5.20;44.74;101341.25;10513572;28;20070;-84
2022/03/10 18:14:09;;;;;;;10.48;9.57;;;;;;;5.20;44.79;101346.44;10499534;28;20128;-84
2022/03/10 18:19:11;;;;;;;11.18;10.15;;;;;;;5.09;44.32;101347.19;10518578;28;20040;-84
2022/03/10 18:24:12;;;;;;;10.77;9.77;;;;;;;4.79;45.49;101352.06;10482086;28;20537;-86
2022/03/10 18:29:15;;;;;;;10.48;9.48;;;;;;;4.75;45.30;101352.84;10511626;28;20058;-84
2022/03/10 18:34:16;;;;;;;10.57;9.63;;;;;;;4.78;44.60;101357.22;10549078;28;20049;-83
2022/03/10 18:39:18;;;;;;;10.68;9.68;;;;;;;4.69;44.57;101363.22;10507888;28;20040;-86
2022/03/10 18:44:23;;;;;;;9.80;8.70;;;;;;;4.36;45.33;101365.31;10493500;28;20218;-86
2022/03/10 18:49:31;;;;;;;10.07;9.07;;;;;;;4.22;45.71;101363.38;10501007;28;20072;-85
2022/03/10 18:54:33;;;;;;;10.38;9.43;;;;;;;4.04;46.20;101355.31;10518280;28;20048;-86
2022/03/10 18:59:34;;;;;;;10.70;9.70;;;;;;;4.22;45.69;101358.19;10490542;28;20474;-85
2022/03/10 19:04:39;;;;;;;10.63;9.63;;;;;;;4.04;46.03;101350.09;10496211;28;20078;-86
2022/03/10 19:09:41;;;;;;;11.15;10.05;;;;;;;3.75;46.88;101354.81;10527640;28;20120;-87
2022/03/10 19:14:45;;;;;;;13.73;10.68;;;;;;;3.86;46.16;101362.81;10529383;28;20066;-85
2022/03/10 19:19:51;;;;;;;11.63;9.65;;;;;;;3.59;46.38;101358.88;10528916;28;20355;-85
2022/03/10 19:24:53;;;;;;;11.30;9.20;;;;;;;3.56;46.10;101345.81;10506984;28;20373;-86
2022/03/10 19:29:57;;;;;;;11.13;9.10;;;;;;;3.65;46.25;101356.38;10483654;28;20041;-86
2022/03/10 19:35:02;;;;;;;10.48;9.57;;;;;;;3.67;45.90;101359.00;10497142;28;20052;-85
2022/03/10 19:40:07;;;;;;;12.57;9.07;;;;;;;3.60;45.91;101359.75;10501648;28;20048;-86
2022/03/10 19:45:09;;;;;;;9.43;8.52;;;;;;;3.65;46.06;101356.38;10480782;28;20055;-86
2022/03/10 19:50:10;;;;;;;9.45;8.55;;;;;;;3.19;46.25;101355.53;10498976;28;20080;-86
2022/03/10 19:55:14;;;;;;;9.82;8.93;;;;;;;3.62;45.42;101350.25;10480250;28;20066;-86
2022/03/10 20:00:16;;;;;;;10.88;9.77;;;;;;;3.31;46.79;101348.81;10499070;28;20051;-85
2022/03/10 20:05:21;;;;;;;16.23;10.00;;;;;;;3.21;47.17;101347.75;10515706;28;20401;-85
2022/03/10 20:10:23;;;;;;;10.57;9.57;;;;;;;2.89;47.85;101358.41;10501944;28;20108;-86
2022/03/10 20:15:29;;;;;;;19.00;9.95;;;;;;;2.97;47.37;101354.25;10488540;28;20075;-86
2022/03/10 20:20:36;;;;;;;17.65;10.93;;;;;;;2.77;48.18;101353.81;10503053;28;20379;-87
2022/03/10 20:26:18;;;;;;;;;;;;;;;2.51;48.54;101360.16;10491037;28;20425;-86
2022/03/10 20:31:20;;;;;;;10.32;9.23;;;;;;;2.55;47.60;101361.09;10505692;28;20015;-85
2022/03/10 20:36:25;;;;;;;10.57;9.57;;;;;;;2.24;48.52;101352.63;10526498;28;20052;-87
2022/03/10 20:41:33;;;;;;;10.60;9.60;;;;;;;2.41;47.39;101366.88;10502433;28;20146;-86
2022/03/10 20:46:35;;;;;;;9.20;8.23;;;;;;;2.38;46.61;101363.31;10522968;28;20100;-86
2022/03/10 20:51:37;;;;;;;8.30;7.55;;;;;;;1.92;47.78;101368.31;10503812;28;20079;-85
2022/03/10 20:56:38;;;;;;;8.98;7.78;;;;;;;2.09;46.04;101371.31;10522428;28;20041;-84
2022/03/10 21:01:43;;;;;;;9.80;7.30;;;;;;;2.12;44.72;101366.19;10492792;28;20127;-84
2022/03/10 21:06:45;;;;;;;9.65;6.55;;;;;;;1.96;45.36;101357.16;10524622;28;20044;-84
2022/03/10 21:11:50;;;;;;;6.70;5.78;;;;;;;1.75;45.70;101348.84;10536405;28;20036;-85
2022/03/10 21:16:52;;;;;;;7.63;6.85;;;;;;;2.05;44.50;101353.06;10523305;28;20068;-85
2022/03/10 21:21:55;;;;;;;6.82;6.13;;;;;;;1.95;44.26;101355.44;10509363;28;20052;-84
2022/03/10 21:26:56;;;;;;;10.48;6.82;;;;;;;1.97;44.00;101352.84;10528318;28;20494;-84
2022/03/10 21:31:58;;;;;;;6.97;6.30;;;;;;;1.77;44.65;101355.84;10517005;28;20050;-85
2022/03/10 21:36:59;;;;;;;7.53;6.07;;;;;;;1.33;45.21;101357.28;10514182;28;20060;-85
2022/03/10 21:42:03;;;;;;;8.27;6.68;;;;;;;1.55;44.73;101352.66;10511234;28;20090;-85
2022/03/10 21:47:05;;;;;;;8.45;7.25;;;;;;;1.62;44.73;101349.38;10532082;28;20071;-86
2022/03/10 21:52:07;;;;;;;9.13;7.43;;;;;;;1.61;44.51;101342.47;10514122;28;20054;-85
2022/03/10 21:57:11;;;;;;;7.72;6.88;;;;;;;1.28;45.30;101340.72;10517340;28;20032;-86
2022/03/10 22:02:13;;;;;;;8.63;6.88;;;;;;;1.15;45.39;101342.13;10516828;28;20044;-85
2022/03/10 22:07:15;;;;;;;14.35;6.80;;;;;;;1.30;44.93;101344.25;10519201;28;20049;-86
2022/03/10 22:12:17;;;;;;;8.45;7.03;;;;;;;1.23;44.79;101337.13;10537230;28;20053;-86
2022/03/10 22:17:18;;;;;;;8.73;7.00;;;;;;;1.34;44.56;101338.31;10490732;22;20160;-70
2022/03/10 22:22:21;;;;;;;10.35;7.50;;;;;;;1.35;44.51;101340.06;10427511;28;20049;-71
2022/03/10 22:27:23;;;;;;;7.47;6.65;;;;;;;1.31;44.96;101343.41;10391580;28;20053;-70
2022/03/10 22:32:25;;;;;;;8.00;7.20;;;;;;;1.27;44.81;101341.56;10429808;28;20515;-71
2022/03/10 22:37:29;;;;;;;8.00;6.65;;;;;;;0.86;46.13;101330.94;10429299;28;20048;-70
2022/03/10 22:42:32;;;;;;;11.32;8.02;;;;;;;0.90;45.92;101335.38;10411925;28;20045;-70
2022/03/10 22:47:33;;;;;;;11.25;7.72;;;;;;;1.14;45.46;101332.56;10411052;28;20120;-71
2022/03/10 22:57:56;;;;;;;12.13;7.05;;;;;;;0.82;46.01;101342.03;10427195;28;20056;-70
2022/03/10 23:02:57;;;;;;;11.68;7.57;;;;;;;0.97;44.98;101326.06;10426111;28;20541;-70
2022/03/10 23:07:59;;;;;;;9.45;7.50;;;;;;;0.91;44.88;101329.34;10412628;28;20038;-70
2022/03/10 23:13:03;;;;;;;8.57;7.55;;;;;;;0.94;44.77;101336.34;10425018;28;20491;-68